createdAt,value
2022-12-11T00:01:22.257Z,100668.34
2022-12-11T00:03:50.042Z,100664.13
2022-12-11T00:06:20.634Z,100668.81
2022-12-11T00:08:50.916Z,100667.63
2022-12-11T00:11:18.397Z,100671.06
2022-12-11T00:13:45.752Z,100668.56
2022-12-11T00:16:13.075Z,100663.63
2022-12-11T00:18:40.579Z,100669.00
2022-12-11T00:21:09.762Z,100675.66
2022-12-11T00:23:37.761Z,100665.44
2022-12-11T00:26:12.163Z,100661.53
2022-12-11T00:28:39.893Z,100665.63
2022-12-11T00:31:11.490Z,100657.91
2022-12-11T00:33:43.328Z,100654.13
2022-12-11T00:36:16.716Z,100651.63
2022-12-11T00:38:44.734Z,100650.59
2022-12-11T00:41:12.832Z,100647.03
2022-12-11T00:43:40.295Z,100651.97
2022-12-11T00:46:07.879Z,100647.03
2022-12-11T00:48:35.525Z,100648.09
2022-12-11T00:51:02.880Z,100640.22
2022-12-11T00:53:30.046Z,100637.72
2022-12-11T00:55:57.439Z,100635.91
2022-12-11T00:58:25.282Z,100630.28
2022-12-11T01:00:53.356Z,100627.94
2022-12-11T01:03:20.958Z,100630.09
2022-12-11T01:05:55.612Z,100625.31
2022-12-11T01:08:23.152Z,100623.75
2022-12-11T01:10:50.483Z,100631.88
2022-12-11T01:13:17.722Z,100625.84
2022-12-11T01:15:45.845Z,100624.09
2022-12-11T01:18:15.667Z,100618.56
2022-12-11T01:20:43.736Z,100608.63
2022-12-11T01:23:13.462Z,100605.66
2022-12-11T01:25:41.370Z,100615.06
2022-12-11T01:28:09.813Z,100602.13
2022-12-11T01:30:38.232Z,100606.88
2022-12-11T01:33:05.953Z,100605.69
2022-12-11T01:35:33.446Z,100598.66
2022-12-11T01:38:01.000Z,100598.59
2022-12-11T01:40:28.322Z,100598.03
2022-12-11T01:42:55.793Z,100603.97
2022-12-11T01:45:55.653Z,100599.16
2022-12-11T01:48:27.577Z,100601.94
2022-12-11T01:51:05.126Z,100595.16
2022-12-11T01:53:40.637Z,100592.47
2022-12-11T01:56:09.197Z,100601.19
2022-12-11T01:58:52.478Z,100600.59
2022-12-11T02:01:32.056Z,100602.06
2022-12-11T02:04:00.352Z,100597.53
2022-12-11T02:06:49.044Z,100593.13
2022-12-11T02:09:20.439Z,100588.22
2022-12-11T02:11:58.030Z,100577.88
2022-12-11T02:14:33.032Z,100576.41
2022-12-11T02:17:04.962Z,100577.22
2022-12-11T02:19:49.315Z,100574.19
2022-12-11T02:22:48.150Z,100583.50
2022-12-11T02:25:33.077Z,100581.59
2022-12-11T02:28:16.471Z,100584.97
2022-12-11T02:30:49.232Z,100576.47
2022-12-11T02:33:19.789Z,100582.47
2022-12-11T02:35:49.359Z,100586.25
2022-12-11T02:38:39.576Z,100589.41
2022-12-11T02:41:09.771Z,100581.03
2022-12-11T02:43:38.538Z,100594.22
2022-12-11T02:46:08.306Z,100589.47
2022-12-11T02:48:37.380Z,100587.31
2022-12-11T02:51:08.105Z,100589.97
2022-12-11T02:53:41.645Z,100589.84
2022-12-11T02:56:14.238Z,100588.72
2022-12-11T02:59:07.367Z,100592.91
2022-12-11T03:01:34.962Z,100591.22
2022-12-11T03:04:02.712Z,100590.75
2022-12-11T03:06:37.530Z,100592.47
2022-12-11T03:09:07.114Z,100592.16
2022-12-11T03:11:34.569Z,100594.72
2022-12-11T03:14:05.345Z,100586.94
2022-12-11T03:16:43.174Z,100583.56
2022-12-11T03:19:37.319Z,100584.00
2022-12-11T03:22:19.018Z,100588.81
2022-12-11T03:24:53.821Z,100593.75
2022-12-11T03:27:30.479Z,100588.34
2022-12-11T03:30:06.601Z,100587.25
2022-12-11T03:32:58.241Z,100588.50
2022-12-11T03:35:38.481Z,100579.88
2022-12-11T03:38:16.114Z,100568.06
2022-12-11T03:40:46.811Z,100561.13
2022-12-11T03:43:16.394Z,100564.38
2022-12-11T03:45:47.124Z,100568.66
2022-12-11T03:48:17.290Z,100559.16
2022-12-11T03:50:47.092Z,100559.16
2022-12-11T03:53:16.316Z,100559.53
2022-12-11T03:55:43.830Z,100565.94
2022-12-11T03:58:11.139Z,100567.84
2022-12-11T04:00:38.488Z,100569.81
2022-12-11T04:03:14.913Z,100566.69
2022-12-11T04:05:45.944Z,100560.34
2022-12-11T04:08:14.117Z,100559.91
2022-12-11T04:10:41.964Z,100553.97
2022-12-11T04:13:10.587Z,100548.97
2022-12-11T04:15:40.762Z,100553.97
2022-12-11T04:18:40.961Z,100560.44
2022-12-11T04:21:27.777Z,100546.19
2022-12-11T04:24:14.052Z,100551.00
2022-12-11T04:26:46.451Z,100546.13
2022-12-11T04:29:14.786Z,100545.34
2022-12-11T04:31:42.303Z,100541.34
2022-12-11T04:34:09.938Z,100545.47
2022-12-11T04:36:37.857Z,100541.34
2022-12-11T04:39:06.170Z,100540.03
2022-12-11T04:41:33.805Z,100528.03
2022-12-11T04:44:01.544Z,100530.44
2022-12-11T04:46:29.264Z,100524.97
2022-12-11T04:48:57.818Z,100533.53
2022-12-11T04:51:25.685Z,100529.06
2022-12-11T04:53:53.347Z,100512.66
2022-12-11T04:56:21.360Z,100518.75
2022-12-11T04:58:50.031Z,100524.75
2022-12-11T05:01:20.394Z,100533.53
2022-12-11T05:03:48.779Z,100520.66
2022-12-11T05:06:16.295Z,100513.75
2022-12-11T05:08:45.463Z,100517.53
2022-12-11T05:11:15.650Z,100514.97
2022-12-11T05:13:44.316Z,100516.22
2022-12-11T05:16:14.320Z,100507.00
2022-12-11T05:18:42.304Z,100504.72
2022-12-11T05:21:13.279Z,100510.59
2022-12-11T05:23:41.925Z,100509.59
2022-12-11T05:26:14.276Z,100507.38
2022-12-11T05:28:42.219Z,100508.03
2022-12-11T05:31:19.481Z,100499.19
2022-12-11T05:33:47.902Z,100501.22
2022-12-11T05:36:32.572Z,100505.75
2022-12-11T05:39:01.017Z,100509.78
2022-12-11T05:41:31.653Z,100514.81
2022-12-11T05:43:59.266Z,100517.28
2022-12-11T05:46:27.873Z,100501.91
2022-12-11T05:48:58.429Z,100502.47
2022-12-11T05:51:26.866Z,100502.16
2022-12-11T05:53:56.575Z,100499.91
2022-12-11T05:56:26.897Z,100490.66
2022-12-11T05:58:55.737Z,100482.38
2022-12-11T06:01:29.104Z,100492.34
2022-12-11T06:03:57.902Z,100497.03
2022-12-11T06:06:26.553Z,100492.63
2022-12-11T06:08:56.175Z,100492.00
2022-12-11T06:11:24.628Z,100494.41
2022-12-11T06:13:53.226Z,100489.19
2022-12-11T06:16:21.642Z,100496.59
2022-12-11T06:18:49.376Z,100497.19
2022-12-11T06:21:24.249Z,100488.97
2022-12-11T06:23:53.972Z,100482.97
2022-12-11T06:26:22.065Z,100487.22
2022-12-11T06:28:50.668Z,100488.66
2022-12-11T06:31:19.194Z,100479.97
2022-12-11T06:33:47.404Z,100474.69
2022-12-11T06:36:17.342Z,100476.63
2022-12-11T06:38:45.548Z,100481.53
2022-12-11T06:41:12.997Z,100481.66
2022-12-11T06:43:41.111Z,100490.09
2022-12-11T06:46:10.735Z,100477.88
2022-12-11T06:48:42.252Z,100479.91
2022-12-11T06:51:13.024Z,100479.19
2022-12-11T06:53:41.420Z,100481.81
2022-12-11T06:56:12.973Z,100479.91
2022-12-11T06:58:42.191Z,100479.03
2022-12-11T07:01:28.489Z,100487.00
2022-12-11T07:03:57.841Z,100481.00
2022-12-11T07:06:26.992Z,100489.44
2022-12-11T07:08:54.929Z,100486.47
2022-12-11T07:11:23.205Z,100485.50
2022-12-11T07:13:50.693Z,100474.78
2022-12-11T07:16:18.442Z,100473.78
2022-12-11T07:18:50.637Z,100466.75
2022-12-11T07:21:20.243Z,100466.28
2022-12-11T07:23:50.282Z,100468.25
2022-12-11T07:26:20.951Z,100469.81
2022-12-11T07:28:49.044Z,100465.81
2022-12-11T07:31:23.367Z,100468.31
2022-12-11T07:33:55.398Z,100469.44
2022-12-11T07:36:23.987Z,100466.06
2022-12-11T07:38:51.954Z,100466.41
2022-12-11T07:41:19.927Z,100468.84
2022-12-11T07:43:54.455Z,100473.22
2022-12-11T07:46:25.215Z,100480.19
2022-12-11T07:48:53.345Z,100483.78
2022-12-11T07:51:26.657Z,100478.84
2022-12-11T07:53:56.426Z,100470.50
2022-12-11T07:56:24.031Z,100468.66
2022-12-11T07:58:51.800Z,100471.16
2022-12-11T08:01:28.118Z,100470.91
2022-12-11T08:03:56.287Z,100474.97
2022-12-11T08:06:29.647Z,100474.97
2022-12-11T08:08:58.547Z,100477.00
2022-12-11T08:11:26.855Z,100468.22
2022-12-11T08:13:54.861Z,100463.81
2022-12-11T08:16:23.368Z,100461.31
2022-12-11T08:18:51.575Z,100459.28
2022-12-11T08:21:21.954Z,100465.53
2022-12-11T08:23:50.630Z,100464.66
2022-12-11T08:26:21.350Z,100461.94
2022-12-11T08:28:49.064Z,100452.97
2022-12-11T08:31:18.233Z,100455.59
2022-12-11T08:33:46.836Z,100447.63
2022-12-11T08:36:18.399Z,100448.03
2022-12-11T08:38:46.942Z,100443.28
2022-12-11T08:41:17.063Z,100452.03
2022-12-11T08:43:45.134Z,100445.84
2022-12-11T08:46:13.454Z,100444.84
2022-12-11T08:48:43.182Z,100447.97
2022-12-11T08:51:18.621Z,100445.91
2022-12-11T08:53:46.499Z,100450.47
2022-12-11T08:56:16.632Z,100444.16
2022-12-11T08:58:45.223Z,100446.59
2022-12-11T09:01:21.721Z,100451.59
2022-12-11T09:03:50.504Z,100442.13
2022-12-11T09:06:20.663Z,100445.31
2022-12-11T09:08:52.902Z,100450.28
2022-12-11T09:11:23.779Z,100451.47
2022-12-11T09:13:52.036Z,100446.69
2022-12-11T09:16:22.598Z,100444.81
2022-12-11T09:18:52.089Z,100444.38
2022-12-11T09:21:21.983Z,100443.50
2022-12-11T09:23:53.038Z,100448.94
2022-12-11T09:26:21.110Z,100453.94
2022-12-11T09:28:48.683Z,100445.13
2022-12-11T09:31:19.331Z,100445.78
2022-12-11T09:33:47.723Z,100447.53
2022-12-11T09:36:15.142Z,100446.09
2022-12-11T09:38:45.362Z,100446.72
2022-12-11T09:41:23.337Z,100447.94
2022-12-11T09:44:06.029Z,100448.25
2022-12-11T09:46:35.613Z,100444.25
2022-12-11T09:49:09.790Z,100439.94
2022-12-11T09:51:42.729Z,100435.41
2022-12-11T09:54:13.585Z,100434.78
2022-12-11T09:56:52.587Z,100433.78
2022-12-11T09:59:25.860Z,100424.22
2022-12-11T10:01:59.421Z,100418.75
2022-12-11T10:04:46.054Z,100418.44
2022-12-11T10:07:35.613Z,100425.50
2022-12-11T10:10:23.932Z,100435.31
2022-12-11T10:13:01.438Z,100430.34
2022-12-11T10:15:35.567Z,100440.69
2022-12-11T10:18:07.269Z,100441.13
2022-12-11T10:20:39.417Z,100431.66
2022-12-11T10:23:10.151Z,100439.91
2022-12-11T10:25:45.011Z,100443.84
2022-12-11T10:28:14.742Z,100450.53
2022-12-11T10:30:57.694Z,100445.78
2022-12-11T10:33:40.836Z,100451.22
2022-12-11T10:36:09.961Z,100437.78
2022-12-11T10:38:45.248Z,100439.03
2022-12-11T10:41:18.768Z,100436.31
2022-12-11T10:43:51.295Z,100430.22
2022-12-11T10:46:24.933Z,100423.41
2022-12-11T10:49:00.561Z,100419.25
2022-12-11T10:51:30.840Z,100412.25
2022-12-11T10:54:17.470Z,100416.53
2022-12-11T10:56:48.558Z,100419.88
2022-12-11T10:59:50.047Z,100421.44
2022-12-11T11:02:40.779Z,100417.31
2022-12-11T11:05:30.818Z,100415.22
2022-12-11T11:08:23.979Z,100414.09
2022-12-11T11:10:57.936Z,100418.25
2022-12-11T11:13:33.008Z,100404.59
2022-12-11T11:16:09.990Z,100408.31
2022-12-11T11:18:42.525Z,100396.97
2022-12-11T11:21:18.886Z,100404.59
2022-12-11T11:23:51.901Z,100395.66
2022-12-11T11:26:38.258Z,100403.44
2022-12-11T11:29:43.321Z,100397.50
2022-12-11T11:32:24.202Z,100394.94
2022-12-11T11:34:51.700Z,100391.63
2022-12-11T11:37:37.561Z,100388.63
2022-12-11T11:40:24.476Z,100393.81
2022-12-11T11:43:08.034Z,100398.31
2022-12-11T11:45:53.877Z,100389.81
2022-12-11T11:48:53.886Z,100391.50
2022-12-11T11:51:27.509Z,100380.56
2022-12-11T11:53:59.659Z,100378.09
2022-12-11T11:56:31.627Z,100382.13
2022-12-11T11:59:13.653Z,100377.03
2022-12-11T12:01:43.133Z,100376.19
2022-12-11T12:04:11.854Z,100372.22
2022-12-11T12:06:48.928Z,100372.16
2022-12-11T12:09:32.570Z,100369.69
2022-12-11T12:12:22.806Z,100363.66
2022-12-11T12:14:56.400Z,100367.44
2022-12-11T12:17:38.845Z,100365.00
2022-12-11T12:20:28.028Z,100361.16
2022-12-11T12:23:07.545Z,100360.59
2022-12-11T12:26:06.272Z,100353.84
2022-12-11T12:28:36.876Z,100357.09
2022-12-11T12:31:26.120Z,100342.63
2022-12-11T12:34:11.259Z,100344.69
2022-12-11T12:37:12.347Z,100349.22
2022-12-11T12:40:13.361Z,100335.41
2022-12-11T12:43:08.861Z,100334.94
2022-12-11T12:45:45.637Z,100333.50
2022-12-11T12:48:16.367Z,100331.84
2022-12-11T12:50:49.597Z,100329.59
2022-12-11T12:53:27.501Z,100317.28
2022-12-11T12:55:59.599Z,100323.31
2022-12-11T12:58:42.158Z,100316.63
2022-12-11T13:01:17.255Z,100312.56
2022-12-11T13:04:05.721Z,100312.34
2022-12-11T13:06:43.045Z,100312.75
2022-12-11T13:09:12.403Z,100301.63
2022-12-11T13:11:39.738Z,100302.69
2022-12-11T13:14:16.260Z,100302.13
2022-12-11T13:16:49.830Z,100303.75
2022-12-11T13:19:23.312Z,100297.94
2022-12-11T13:22:13.011Z,100292.19
2022-12-11T13:24:52.297Z,100298.94
2022-12-11T13:27:39.633Z,100300.84
2022-12-11T13:30:28.581Z,100295.97
2022-12-11T13:33:17.714Z,100299.34
2022-12-11T13:35:45.790Z,100297.66
2022-12-11T13:38:20.224Z,100301.00
2022-12-11T13:40:53.613Z,100293.06
2022-12-11T13:43:26.937Z,100298.25
2022-12-11T13:46:03.366Z,100302.84
2022-12-11T13:49:02.092Z,100306.19
2022-12-11T13:51:31.853Z,100299.75
2022-12-11T13:54:17.373Z,100298.22
2022-12-11T13:57:17.755Z,100300.19
2022-12-11T13:59:53.095Z,100301.25
2022-12-11T14:02:33.821Z,100299.41
2022-12-11T14:05:07.480Z,100289.91
2022-12-11T14:07:39.169Z,100295.00
2022-12-11T14:10:15.078Z,100289.50
2022-12-11T14:13:07.209Z,100295.38
2022-12-11T14:15:36.249Z,100290.03
2022-12-11T14:18:05.585Z,100290.94
2022-12-11T14:20:34.433Z,100283.72
2022-12-11T14:23:16.790Z,100284.59
2022-12-11T14:25:57.399Z,100288.81
2022-12-11T14:28:27.977Z,100282.22
2022-12-11T14:30:59.342Z,100293.38
2022-12-11T14:33:37.494Z,100280.16
2022-12-11T14:36:06.070Z,100282.66
2022-12-11T14:38:43.605Z,100283.47
2022-12-11T14:41:24.606Z,100290.38
2022-12-11T14:43:56.357Z,100290.59
2022-12-11T14:46:37.848Z,100284.38
2022-12-11T14:49:15.825Z,100285.34
2022-12-11T14:51:44.662Z,100285.31
2022-12-11T14:54:27.906Z,100288.81
2022-12-11T14:56:56.079Z,100290.00
2022-12-11T14:59:31.444Z,100291.75
2022-12-11T15:02:21.083Z,100298.03
2022-12-11T15:05:03.396Z,100301.16
2022-12-11T15:07:31.289Z,100301.69
2022-12-11T15:09:58.649Z,100294.81
2022-12-11T15:12:26.323Z,100292.31
2022-12-11T15:15:20.399Z,100293.88
2022-12-11T15:17:53.031Z,100295.88
2022-12-11T15:20:27.544Z,100297.59
2022-12-11T15:23:00.175Z,100292.94
2022-12-11T15:25:29.486Z,100294.69
2022-12-11T15:27:59.976Z,100292.56
2022-12-11T15:30:31.613Z,100296.84
2022-12-11T15:33:02.509Z,100295.44
2022-12-11T15:35:30.025Z,100295.06
2022-12-11T15:37:58.394Z,100289.75
2022-12-11T15:40:27.220Z,100284.66
2022-12-11T15:42:55.725Z,100289.63
2022-12-11T15:45:26.109Z,100286.47
2022-12-11T15:47:53.619Z,100292.81
2022-12-11T15:50:23.136Z,100291.38
2022-12-11T15:52:52.381Z,100290.00
2022-12-11T15:55:21.347Z,100286.41
2022-12-11T15:57:55.427Z,100284.75
2022-12-11T16:00:24.165Z,100289.69
2022-12-11T16:02:52.203Z,100297.44
2022-12-11T16:05:20.075Z,100302.72
2022-12-11T16:07:48.522Z,100305.31
2022-12-11T16:10:18.469Z,100305.13
2022-12-11T16:12:46.397Z,100313.09
2022-12-11T16:15:20.116Z,100309.78
2022-12-11T16:17:50.774Z,100314.16
2022-12-11T16:20:18.258Z,100309.53
2022-12-11T16:22:45.857Z,100312.69
2022-12-11T16:25:13.371Z,100313.06
2022-12-11T16:27:41.113Z,100315.63
2022-12-11T16:30:10.703Z,100316.38
2022-12-11T16:32:38.066Z,100307.09
2022-12-11T16:35:05.691Z,100318.59
2022-12-11T16:37:33.270Z,100311.41
2022-12-11T16:40:00.542Z,100310.47
2022-12-11T16:42:27.835Z,100311.63
2022-12-11T16:44:55.605Z,100311.03
2022-12-11T16:47:23.253Z,100317.06
2022-12-11T16:49:51.115Z,100311.81
2022-12-11T16:52:22.110Z,100308.88
2022-12-11T16:54:50.102Z,100304.69
2022-12-11T16:57:17.513Z,100305.56
2022-12-11T16:59:44.912Z,100303.84
2022-12-11T17:02:12.165Z,100301.13
2022-12-11T17:04:40.434Z,100300.03
2022-12-11T17:07:08.253Z,100305.19
2022-12-11T17:09:36.242Z,100310.47
2022-12-11T17:12:03.864Z,100309.34
2022-12-11T17:14:31.770Z,100317.56
2022-12-11T17:17:00.570Z,100317.22
2022-12-11T17:19:28.018Z,100309.66
2022-12-11T17:21:56.136Z,100309.56
2022-12-11T17:24:23.582Z,100307.25
2022-12-11T17:26:50.962Z,100311.06
2022-12-11T17:29:18.633Z,100317.22
2022-12-11T17:31:46.189Z,100313.16
2022-12-11T17:34:13.665Z,100317.03
2022-12-11T17:36:41.032Z,100316.00
2022-12-11T17:39:08.521Z,100314.56
2022-12-11T17:41:35.952Z,100312.38
2022-12-11T17:44:03.512Z,100305.25
2022-12-11T17:46:30.890Z,100319.00
2022-12-11T17:49:00.213Z,100324.00
2022-12-11T17:51:27.896Z,100326.03
2022-12-11T17:53:56.229Z,100323.66
2022-12-11T17:56:24.209Z,100314.78
2022-12-11T17:58:51.967Z,100324.38
2022-12-11T18:01:20.223Z,100312.97
2022-12-11T18:03:47.943Z,100320.72
2022-12-11T18:06:16.581Z,100326.53
2022-12-11T18:08:45.762Z,100325.31
2022-12-11T18:11:15.817Z,100324.69
2022-12-11T18:13:44.828Z,100315.91
2022-12-11T18:16:16.905Z,100320.88
2022-12-11T18:18:46.404Z,100326.84
2022-12-11T18:21:16.291Z,100317.75
2022-12-11T18:23:44.566Z,100310.69
2022-12-11T18:26:14.517Z,100310.94
2022-12-11T18:28:42.883Z,100310.00
2022-12-11T18:31:10.811Z,100310.50
2022-12-11T18:33:40.157Z,100314.03
2022-12-11T18:36:08.214Z,100308.03
2022-12-11T18:38:35.773Z,100296.63
2022-12-11T18:41:04.147Z,100299.31
2022-12-11T18:43:31.537Z,100297.50
2022-12-11T18:45:59.091Z,100301.00
2022-12-11T18:48:26.550Z,100298.22
2022-12-11T18:50:53.883Z,100298.06
2022-12-11T18:53:21.337Z,100303.13
2022-12-11T18:55:48.878Z,100299.88
2022-12-11T18:58:18.939Z,100297.31
2022-12-11T19:00:47.018Z,100302.88
2022-12-11T19:03:14.498Z,100307.16
2022-12-11T19:05:45.357Z,100300.16
2022-12-11T19:08:13.965Z,100305.97
2022-12-11T19:10:47.073Z,100313.47
2022-12-11T19:13:14.964Z,100311.44
2022-12-11T19:15:43.999Z,100307.72
2022-12-11T19:18:11.585Z,100309.53
2022-12-11T19:20:49.284Z,100303.66
2022-12-11T19:23:18.635Z,100301.75
2022-12-11T19:25:47.942Z,100306.38
2022-12-11T19:28:15.728Z,100321.81
2022-12-11T19:30:48.858Z,100334.16
2022-12-11T19:33:16.734Z,100335.78
2022-12-11T19:35:44.283Z,100328.91
2022-12-11T19:38:13.059Z,100321.09
2022-12-11T19:40:42.603Z,100329.63
2022-12-11T19:43:10.608Z,100326.72
2022-12-11T19:45:38.701Z,100316.22
2022-12-11T19:48:06.413Z,100333.16
2022-12-11T19:50:36.436Z,100338.88
2022-12-11T19:53:04.163Z,100338.47
2022-12-11T19:55:31.683Z,100336.94
2022-12-11T19:58:00.767Z,100338.09
2022-12-11T20:00:28.578Z,100346.41
2022-12-11T20:02:56.050Z,100351.31
2022-12-11T20:05:23.794Z,100356.47
2022-12-11T20:07:52.170Z,100356.81
2022-12-11T20:10:20.793Z,100364.31
2022-12-11T20:12:48.428Z,100365.50
2022-12-11T20:15:19.604Z,100371.13
2022-12-11T20:17:56.710Z,100355.06
2022-12-11T20:20:27.550Z,100356.16
2022-12-11T20:23:00.249Z,100367.03
2022-12-11T20:25:28.236Z,100362.88
2022-12-11T20:27:55.863Z,100349.47
2022-12-11T20:30:24.731Z,100347.31
2022-12-11T20:32:52.745Z,100349.06
2022-12-11T20:35:20.580Z,100344.19
2022-12-11T20:37:47.950Z,100359.06
2022-12-11T20:40:15.447Z,100357.22
2022-12-11T20:42:42.887Z,100351.59
2022-12-11T20:45:11.184Z,100348.56
2022-12-11T20:47:38.732Z,100351.03
2022-12-11T20:50:06.313Z,100353.56
2022-12-11T20:52:34.884Z,100361.03
2022-12-11T20:55:02.428Z,100352.44
2022-12-11T20:57:29.954Z,100349.19
2022-12-11T20:59:58.242Z,100351.28
2022-12-11T21:02:25.775Z,100351.22
2022-12-11T21:04:53.259Z,100352.09
2022-12-11T21:07:20.588Z,100342.63
2022-12-11T21:09:47.878Z,100335.59
2022-12-11T21:12:15.163Z,100334.31
2022-12-11T21:14:42.470Z,100350.34
2022-12-11T21:17:09.796Z,100348.38
2022-12-11T21:19:39.296Z,100351.13
2022-12-11T21:22:07.017Z,100344.69
2022-12-11T21:24:34.481Z,100361.22
2022-12-11T21:27:01.783Z,100372.88
2022-12-11T21:29:29.518Z,100375.28
2022-12-11T21:31:57.685Z,100377.88
2022-12-11T21:34:25.858Z,100375.34
2022-12-11T21:36:56.933Z,100377.97
2022-12-11T21:39:26.069Z,100366.06
2022-12-11T21:41:53.641Z,100367.09
2022-12-11T21:47:09.585Z,100360.41
2022-12-11T21:49:37.194Z,100360.72
2022-12-11T21:52:05.226Z,100358.97
2022-12-11T21:54:32.757Z,100372.13
2022-12-11T21:57:00.209Z,100368.63
2022-12-11T21:59:28.722Z,100364.53
2022-12-11T22:01:56.759Z,100364.97
2022-12-11T22:04:24.526Z,100378.78
2022-12-11T22:06:52.187Z,100378.44
2022-12-11T22:09:19.623Z,100376.69
2022-12-11T22:11:47.423Z,100387.22
2022-12-11T22:14:16.423Z,100376.16
2022-12-11T22:16:44.774Z,100378.16
2022-12-11T22:19:12.929Z,100377.84
2022-12-11T22:21:40.663Z,100376.06
2022-12-11T22:24:08.407Z,100379.13
2022-12-11T22:26:35.885Z,100383.25
2022-12-11T22:29:03.778Z,100388.31
2022-12-11T22:31:31.625Z,100381.50
2022-12-11T22:33:58.982Z,100378.19
2022-12-11T22:36:27.716Z,100388.22
2022-12-11T22:38:55.739Z,100384.03
2022-12-11T22:41:29.355Z,100378.44
2022-12-11T22:43:57.388Z,100377.50
2022-12-11T22:46:28.419Z,100372.53
2022-12-11T22:48:56.224Z,100376.81
2022-12-11T22:51:23.723Z,100380.88
2022-12-11T22:53:51.182Z,100378.88
2022-12-11T22:56:18.490Z,100384.00
2022-12-11T22:58:46.443Z,100386.50
2022-12-11T23:01:18.396Z,100385.00
2022-12-11T23:03:46.189Z,100382.75
2022-12-11T23:06:17.498Z,100377.13
2022-12-11T23:08:45.704Z,100389.00
2022-12-11T23:11:16.116Z,100393.38
2022-12-11T23:13:43.617Z,100403.78
2022-12-11T23:16:11.210Z,100412.81
2022-12-11T23:18:39.544Z,100408.22
2022-12-11T23:21:07.804Z,100411.00
2022-12-11T23:23:35.491Z,100408.75
2022-12-11T23:26:07.195Z,100403.28
2022-12-11T23:28:34.705Z,100402.72
2022-12-11T23:31:02.082Z,100400.13
2022-12-11T23:33:29.811Z,100401.06
2022-12-11T23:35:58.366Z,100397.19
2022-12-11T23:38:25.975Z,100409.03
2022-12-11T23:40:53.562Z,100407.28
2022-12-11T23:43:21.092Z,100422.19
2022-12-11T23:45:48.397Z,100421.53
2022-12-11T23:48:16.098Z,100421.44
2022-12-11T23:50:44.246Z,100424.28
2022-12-11T23:53:12.090Z,100418.22
2022-12-11T23:55:42.267Z,100418.69
2022-12-11T23:58:10.995Z,100412.84
